Time;durP1;ratioP1;P1;durP2;ratioP2;P2;SDS_P1;SDS_P2;PMS_P1;PMS_P2;Temp;Humidity;BMP_temperature;BMP_pressure;BME280_temperature;BME280_humidity;BME280_pressure;Samples;Min_cycle;Max_cycle;Signal;HPM_P1;HPM_P2
2023/07/02 00:02:09;;;;;;;1.57;1.10;;;24.00;44.70;;;;;;5018990;28;20317;-74
2023/07/02 00:04:34;;;;;;;1.33;1.23;;;24.00;45.40;;;;;;5021113;28;20256;-74
2023/07/02 00:07:00;;;;;;;1.43;1.33;;;24.00;44.70;;;;;;5017062;28;20338;-74
2023/07/02 00:09:25;;;;;;;1.40;1.30;;;24.00;44.70;;;;;;5011281;28;20714;-74
2023/07/02 00:11:51;;;;;;;1.67;1.10;;;24.00;44.70;;;;;;5014715;28;20795;-74
2023/07/02 00:14:17;;;;;;;1.40;1.30;;;24.00;44.70;;;;;;5005314;28;20226;-74
2023/07/02 00:16:45;;;;;;;1.17;1.10;;;24.00;44.70;;;;;;5008157;28;20300;-74
2023/07/02 00:19:11;;;;;;;1.67;1.33;;;24.00;44.70;;;;;;5021169;28;20235;-74
2023/07/02 00:21:37;;;;;;;1.30;1.20;;;24.00;44.70;;;;;;5011812;28;20983;-74
2023/07/02 00:24:03;;;;;;;1.40;1.30;;;24.00;44.70;;;;;;5015142;28;20483;-74
2023/07/02 00:26:28;;;;;;;1.60;1.50;;;24.00;44.60;;;;;;5025633;28;20238;-73
2023/07/02 00:28:55;;;;;;;1.60;1.50;;;24.00;44.60;;;;;;5014329;28;20471;-73
2023/07/02 00:31:21;;;;;;;1.70;1.50;;;24.00;44.70;;;;;;5013740;28;20234;-73
2023/07/02 00:33:47;;;;;;;2.10;1.90;;;24.00;44.70;;;;;;4994710;28;21474;-74
2023/07/02 00:36:16;;;;;;;1.40;1.30;;;24.00;45.40;;;;;;5002904;28;20875;-73
2023/07/02 00:38:42;;;;;;;1.80;1.70;;;24.00;44.70;;;;;;5011602;28;20473;-74
2023/07/02 00:41:09;;;;;;;1.60;1.50;;;24.00;44.70;;;;;;5014266;28;20456;-74
2023/07/02 00:43:34;;;;;;;1.40;1.30;;;24.00;44.70;;;;;;5008067;28;20461;-74
2023/07/02 00:46:00;;;;;;;1.33;1.23;;;24.00;44.70;;;;;;5011209;28;21005;-74
2023/07/02 00:48:26;;;;;;;1.53;1.43;;;24.00;44.60;;;;;;5005834;28;20693;-74
2023/07/02 00:50:52;;;;;;;2.07;1.47;;;24.00;44.70;;;;;;5022356;28;20263;-73
2023/07/02 00:53:18;;;;;;;1.20;1.10;;;24.00;44.70;;;;;;5022225;28;20471;-73
2023/07/02 00:55:43;;;;;;;1.50;1.40;;;24.00;44.70;;;;;;5023742;28;20526;-74
2023/07/02 00:58:09;;;;;;;1.50;1.40;;;24.00;44.70;;;;;;5020441;28;20695;-74
2023/07/02 01:00:35;;;;;;;1.40;1.30;;;24.00;44.70;;;;;;5030191;28;20314;-73
2023/07/02 01:03:01;;;;;;;1.77;1.50;;;24.00;44.70;;;;;;5010455;28;20310;-74
2023/07/02 01:05:35;;;;;;;1.47;1.37;;;24.00;44.70;;;;;;5023233;28;20258;-74
2023/07/02 01:08:02;;;;;;;2.60;1.97;;;24.00;44.70;;;;;;5022229;28;20541;-74
2023/07/02 01:10:27;;;;;;;1.43;1.33;;;24.00;44.60;;;;;;5017870;28;21152;-74
2023/07/02 01:12:55;;;;;;;1.40;1.30;;;24.00;44.60;;;;;;5018048;28;20482;-74
2023/07/02 01:15:21;;;;;;;1.50;1.40;;;24.00;44.60;;;;;;5010014;28;20219;-74
2023/07/02 01:20:16;;;;;;;1.50;1.40;;;24.00;44.60;;;;;;4988552;22;20480;-64
2023/07/02 01:22:41;;;;;;;1.90;1.80;;;24.00;44.70;;;;;;4975425;28;20313;-65
2023/07/02 01:25:08;;;;;;;7.37;2.00;;;24.00;44.60;;;;;;4979472;28;20971;-64
2023/07/02 01:27:35;;;;;;;1.80;1.70;;;24.00;44.60;;;;;;4976569;28;20231;-65
2023/07/02 01:30:01;;;;;;;1.60;1.50;;;24.00;44.60;;;;;;4980756;28;20496;-65
2023/07/02 01:32:27;;;;;;;1.63;1.53;;;24.00;44.60;;;;;;4994397;28;20440;-65
2023/07/02 01:34:53;;;;;;;1.60;1.50;;;24.00;44.60;;;;;;4994637;28;20220;-66
2023/07/02 01:37:19;;;;;;;1.87;1.57;;;24.00;44.60;;;;;;4996155;28;20216;-66
2023/07/02 01:39:44;;;;;;;2.33;1.67;;;24.00;44.60;;;;;;4997093;28;20224;-66
2023/07/02 01:42:12;;;;;;;1.80;1.63;;;24.00;44.60;;;;;;4995912;28;20255;-64
2023/07/02 01:44:38;;;;;;;2.00;1.53;;;24.00;44.60;;;;;;4995616;28;20227;-65
2023/07/02 01:47:05;;;;;;;1.93;1.83;;;24.00;44.60;;;;;;4984400;28;20465;-65
2023/07/02 01:49:31;;;;;;;2.03;1.50;;;24.00;44.60;;;;;;4995562;28;20560;-64
2023/07/02 01:51:57;;;;;;;2.23;2.03;;;24.00;44.60;;;;;;4991759;28;20551;-65
2023/07/02 01:54:27;;;;;;;2.80;2.10;;;24.00;44.60;;;;;;4994496;28;20570;-64
2023/07/02 01:56:53;;;;;;;1.90;1.80;;;24.00;44.60;;;;;;4988031;28;20950;-64
2023/07/02 01:59:19;;;;;;;2.10;1.90;;;24.00;44.60;;;;;;4998468;28;20472;-66
2023/07/02 02:01:45;;;;;;;5.00;2.57;;;24.00;44.60;;;;;;4993115;28;20457;-65
2023/07/02 02:04:11;;;;;;;2.57;2.47;;;24.00;44.50;;;;;;4998045;28;20274;-63
2023/07/02 02:06:37;;;;;;;2.60;1.93;;;24.00;44.50;;;;;;4996413;28;20239;-65
2023/07/02 02:09:04;;;;;;;1.93;1.83;;;24.00;44.50;;;;;;4995725;28;20259;-65
2023/07/02 02:11:30;;;;;;;2.30;2.10;;;24.00;44.50;;;;;;4995160;28;20778;-65
2023/07/02 02:13:56;;;;;;;2.40;2.20;;;24.00;44.50;;;;;;4993614;28;20575;-65
2023/07/02 02:16:22;;;;;;;2.30;2.10;;;24.00;44.50;;;;;;4978704;28;20829;-65
2023/07/02 02:18:51;;;;;;;2.43;2.00;;;24.00;44.50;;;;;;4998462;28;20465;-65
2023/07/02 02:21:17;;;;;;;3.37;2.30;;;24.00;44.50;;;;;;4994006;28;20244;-65
2023/07/02 02:23:43;;;;;;;3.07;2.87;;;24.00;44.50;;;;;;4993592;28;20461;-65
2023/07/02 02:26:08;;;;;;;2.60;2.40;;;24.00;44.50;;;;;;4993053;28;20214;-65
2023/07/02 02:28:34;;;;;;;3.10;2.90;;;24.00;44.50;;;;;;4986350;28;20230;-66
2023/07/02 02:30:59;;;;;;;2.83;2.60;;;24.00;44.50;;;;;;4996053;28;20382;-64
2023/07/02 02:33:25;;;;;;;2.70;2.50;;;24.00;44.50;;;;;;4991177;28;20277;-65
2023/07/02 02:35:50;;;;;;;3.33;3.13;;;24.00;44.50;;;;;;4990753;28;20224;-64
2023/07/02 02:38:16;;;;;;;3.30;3.10;;;23.90;44.40;;;;;;4997099;28;20306;-65
2023/07/02 02:40:41;;;;;;;3.30;3.00;;;23.90;44.50;;;;;;4994724;28;20219;-65
2023/07/02 02:43:07;;;;;;;3.37;3.17;;;24.00;44.50;;;;;;4994123;28;20793;-65
2023/07/02 02:45:32;;;;;;;3.57;3.30;;;24.00;44.50;;;;;;4995264;28;20227;-65
2023/07/02 02:47:58;;;;;;;3.00;2.80;;;24.00;44.50;;;;;;4998507;28;20320;-65
2023/07/02 02:50:23;;;;;;;3.87;3.50;;;24.00;44.30;;;;;;4990416;28;20231;-65
2023/07/02 02:52:49;;;;;;;3.30;3.00;;;24.00;44.20;;;;;;4997049;28;20241;-66
2023/07/02 02:55:15;;;;;;;4.47;3.30;;;23.90;44.20;;;;;;4994855;28;20222;-65
2023/07/02 02:57:40;;;;;;;3.87;3.60;;;24.00;44.30;;;;;;4993797;28;20745;-65
2023/07/02 03:00:09;;;;;;;3.63;3.03;;;24.00;44.30;;;;;;4997568;28;20254;-64
2023/07/02 03:02:35;;;;;;;3.67;3.37;;;24.00;44.30;;;;;;4993808;28;20228;-65
2023/07/02 03:05:02;;;;;;;3.40;3.20;;;23.90;44.20;;;;;;4995857;28;20641;-64
2023/07/02 03:07:32;;;;;;;5.27;4.00;;;23.90;44.20;;;;;;4996219;28;20443;-64
2023/07/02 03:09:57;;;;;;;3.70;3.50;;;23.90;44.20;;;;;;4998432;28;20464;-66
2023/07/02 03:12:24;;;;;;;3.93;3.63;;;24.00;44.20;;;;;;4993618;28;20527;-65
2023/07/02 03:14:52;;;;;;;4.30;4.00;;;23.90;44.30;;;;;;4990792;28;20250;-65
2023/07/02 03:17:19;;;;;;;3.63;3.40;;;23.90;44.20;;;;;;4995360;28;20456;-65
2023/07/02 03:19:45;;;;;;;4.50;4.10;;;24.00;44.20;;;;;;4996049;28;20489;-65
2023/07/02 03:22:10;;;;;;;3.63;3.43;;;23.90;44.20;;;;;;4995904;28;20523;-65
2023/07/02 03:24:36;;;;;;;4.20;3.90;;;24.00;44.20;;;;;;4996559;28;20230;-64
2023/07/02 03:27:01;;;;;;;5.80;5.10;;;23.90;44.10;;;;;;4992809;28;20314;-65
2023/07/02 03:29:28;;;;;;;4.03;3.60;;;23.90;44.80;;;;;;4993682;28;20260;-65
2023/07/02 03:31:53;;;;;;;4.80;4.23;;;23.90;44.10;;;;;;4998381;28;20880;-65
2023/07/02 03:34:19;;;;;;;4.60;4.20;;;23.90;44.10;;;;;;4996721;28;20581;-65
2023/07/02 03:36:44;;;;;;;5.47;4.50;;;23.90;44.00;;;;;;4995950;28;20291;-64
2023/07/02 03:39:10;;;;;;;4.80;4.40;;;23.90;44.00;;;;;;4997915;28;20266;-65
2023/07/02 03:41:36;;;;;;;4.50;4.20;;;23.90;44.00;;;;;;4996227;28;20322;-64
2023/07/02 03:44:01;;;;;;;7.13;5.30;;;23.90;44.00;;;;;;4993468;28;20231;-65
2023/07/02 03:46:27;;;;;;;4.73;4.40;;;23.90;44.00;;;;;;4995433;28;20229;-65
2023/07/02 03:48:52;;;;;;;4.93;4.40;;;23.90;44.00;;;;;;4997415;28;20671;-65
2023/07/02 03:51:18;;;;;;;5.10;4.70;;;23.90;44.00;;;;;;4994963;28;20250;-64
2023/07/02 03:53:43;;;;;;;4.40;4.10;;;23.90;44.00;;;;;;4989533;28;20243;-66
2023/07/02 03:56:09;;;;;;;5.93;5.33;;;23.90;44.00;;;;;;4995275;28;20593;-65
2023/07/02 03:58:35;;;;;;;4.90;4.53;;;23.90;44.00;;;;;;4996689;28;20270;-66
2023/07/02 04:01:01;;;;;;;4.80;4.50;;;23.90;44.00;;;;;;4993807;28;20634;-64
2023/07/02 04:03:26;;;;;;;5.30;4.90;;;23.90;44.00;;;;;;4996978;28;20235;-65
2023/07/02 04:05:52;;;;;;;5.37;4.97;;;23.90;44.00;;;;;;4995622;28;20246;-64
2023/07/02 04:08:18;;;;;;;5.73;5.23;;;23.90;44.10;;;;;;4995009;28;20239;-66
2023/07/02 04:10:43;;;;;;;5.70;5.30;;;23.90;44.00;;;;;;4997050;28;20278;-66
2023/07/02 04:13:09;;;;;;;4.60;4.30;;;23.90;44.00;;;;;;4993539;28;20611;-65
2023/07/02 04:15:35;;;;;;;5.23;4.73;;;23.90;44.10;;;;;;4991233;28;20286;-65
2023/07/02 04:18:01;;;;;;;5.80;5.30;;;23.90;44.10;;;;;;4994796;28;20226;-68
2023/07/02 04:20:28;;;;;;;5.50;5.10;;;23.90;44.00;;;;;;4994045;28;20231;-67
2023/07/02 04:22:53;;;;;;;6.30;5.70;;;23.90;44.10;;;;;;4993173;28;20464;-66
2023/07/02 04:25:19;;;;;;;6.87;5.30;;;23.90;44.00;;;;;;4992153;28;21066;-66
2023/07/02 04:27:45;;;;;;;6.07;5.47;;;23.90;44.00;;;;;;4998398;28;20227;-65
2023/07/02 04:30:11;;;;;;;5.20;4.80;;;23.90;44.10;;;;;;4987389;28;20243;-64
2023/07/02 04:32:39;;;;;;;6.27;5.67;;;23.90;44.00;;;;;;4995493;28;20231;-66
2023/07/02 04:35:08;;;;;;;6.50;5.90;;;23.90;44.10;;;;;;4998093;28;20512;-66
2023/07/02 04:37:34;;;;;;;6.33;5.83;;;23.90;44.10;;;;;;4996512;28;20450;-65
2023/07/02 04:40:00;;;;;;;5.93;5.43;;;23.90;44.00;;;;;;4994646;28;20456;-65
2023/07/02 04:42:31;;;;;;;6.03;5.27;;;23.90;44.10;;;;;;4996220;28;20453;-64
2023/07/02 04:45:01;;;;;;;7.90;6.70;;;23.90;44.00;;;;;;4995884;28;20715;-65
2023/07/02 04:47:27;;;;;;;7.40;6.17;;;23.90;44.00;;;;;;4998824;28;20460;-66
2023/07/02 04:49:52;;;;;;;6.40;5.90;;;23.90;43.80;;;;;;4992558;28;20527;-65
2023/07/02 04:52:18;;;;;;;7.20;6.60;;;23.90;43.80;;;;;;4990391;28;21114;-64
2023/07/02 04:54:43;;;;;;;7.37;6.70;;;23.90;43.80;;;;;;4994400;28;20250;-66
2023/07/02 04:57:09;;;;;;;6.60;6.10;;;23.90;43.80;;;;;;4994031;28;20629;-65
2023/07/02 04:59:35;;;;;;;8.17;6.50;;;23.90;43.70;;;;;;4993027;28;20968;-63
2023/07/02 05:02:00;;;;;;;7.60;6.90;;;23.90;43.70;;;;;;4988027;28;20224;-66
2023/07/02 05:04:26;;;;;;;7.47;6.43;;;23.90;43.60;;;;;;4992818;28;20868;-65
2023/07/02 05:06:51;;;;;;;6.63;6.03;;;23.90;43.70;;;;;;4994657;28;20255;-63
2023/07/02 05:09:17;;;;;;;7.90;7.13;;;23.90;43.60;;;;;;4993016;28;20240;-65
2023/07/02 05:11:42;;;;;;;8.43;7.53;;;23.90;43.60;;;;;;4993822;28;20580;-65
2023/07/02 05:14:08;;;;;;;8.23;7.43;;;23.90;43.60;;;;;;4992992;28;20223;-66
2023/07/02 05:16:33;;;;;;;7.47;6.77;;;23.90;43.60;;;;;;4991790;28;20246;-65
2023/07/02 05:18:59;;;;;;;7.90;7.20;;;23.90;43.50;;;;;;4995867;28;20231;-65
2023/07/02 05:21:24;;;;;;;8.50;7.60;;;23.90;43.50;;;;;;4990757;28;20663;-66
2023/07/02 05:23:50;;;;;;;7.00;6.40;;;23.90;43.50;;;;;;4993769;28;20231;-66
2023/07/02 05:26:15;;;;;;;8.30;7.40;;;23.90;43.50;;;;;;4994911;28;20234;-66
2023/07/02 05:28:41;;;;;;;9.83;8.13;;;23.90;43.50;;;;;;4994223;28;20298;-65
2023/07/02 05:31:06;;;;;;;7.60;6.80;;;23.90;43.50;;;;;;4992460;28;20354;-65
2023/07/02 05:33:33;;;;;;;7.80;7.10;;;23.90;43.40;;;;;;4993234;28;20227;-66
2023/07/02 05:35:59;;;;;;;8.17;7.47;;;23.90;43.40;;;;;;4996469;28;20230;-65
2023/07/02 05:38:24;;;;;;;9.00;7.60;;;23.90;43.40;;;;;;4979443;28;20455;-65
2023/07/02 05:40:50;;;;;;;8.53;7.63;;;23.90;43.40;;;;;;4992994;28;20254;-64
2023/07/02 05:43:16;;;;;;;8.40;7.70;;;23.90;43.40;;;;;;4991613;28;20228;-64
2023/07/02 05:45:41;;;;;;;9.30;8.33;;;23.90;43.30;;;;;;4998417;28;20850;-64
2023/07/02 05:48:07;;;;;;;12.43;7.67;;;23.90;43.30;;;;;;4996651;28;20220;-65
2023/07/02 05:50:33;;;;;;;8.10;7.37;;;24.00;43.40;;;;;;4996202;28;20297;-65
2023/07/02 05:52:59;;;;;;;9.53;8.23;;;23.90;43.20;;;;;;4994728;28;20223;-66
2023/07/02 05:55:24;;;;;;;9.13;8.20;;;23.90;43.20;;;;;;4991662;28;21112;-65
2023/07/02 05:57:50;;;;;;;8.97;7.87;;;23.90;43.20;;;;;;4985626;28;20254;-64
2023/07/02 06:00:16;;;;;;;11.60;8.43;;;23.90;43.20;;;;;;4985119;28;20219;-67
2023/07/02 06:02:41;;;;;;;7.70;6.93;;;23.90;43.10;;;;;;4993878;28;20667;-67
2023/07/02 06:05:07;;;;;;;11.40;8.10;;;23.90;43.10;;;;;;4984244;28;20294;-66
2023/07/02 06:07:32;;;;;;;8.67;7.57;;;23.90;43.10;;;;;;4970795;28;20748;-65
2023/07/02 06:09:58;;;;;;;10.90;8.50;;;24.00;43.10;;;;;;4991495;28;20251;-64
2023/07/02 06:12:23;;;;;;;10.53;8.70;;;23.90;43.00;;;;;;4993616;28;20211;-66
2023/07/02 06:14:49;;;;;;;9.53;8.63;;;23.90;43.80;;;;;;4995972;28;20243;-67
2023/07/02 06:17:15;;;;;;;9.60;8.70;;;23.90;42.90;;;;;;4995418;28;20790;-67
2023/07/02 06:19:41;;;;;;;11.37;8.73;;;23.90;42.90;;;;;;4994170;28;20246;-67
2023/07/02 06:22:06;;;;;;;11.50;9.53;;;23.90;42.70;;;;;;4991252;28;20235;-66
2023/07/02 06:24:32;;;;;;;11.63;8.50;;;23.90;42.60;;;;;;4996647;28;20224;-65
2023/07/02 06:26:57;;;;;;;11.97;9.43;;;23.90;42.60;;;;;;4991973;28;20295;-66
2023/07/02 06:29:24;;;;;;;10.63;9.30;;;23.90;42.60;;;;;;4988120;28;23528;-64
2023/07/02 06:31:50;;;;;;;13.93;9.10;;;23.90;42.70;;;;;;4986056;28;20311;-66
2023/07/02 06:34:16;;;;;;;15.27;10.17;;;23.90;42.60;;;;;;4987999;28;20457;-65
2023/07/02 06:36:42;;;;;;;16.40;10.10;;;24.00;43.50;;;;;;4993010;28;20461;-65
2023/07/02 06:39:09;;;;;;;11.00;8.63;;;24.00;42.70;;;;;;4992847;28;20472;-64
2023/07/02 06:41:35;;;;;;;11.97;9.17;;;24.00;42.70;;;;;;4994623;28;20219;-65
2023/07/02 06:44:00;;;;;;;12.93;9.57;;;24.00;42.70;;;;;;4991035;28;20498;-64
2023/07/02 06:46:26;;;;;;;12.17;8.90;;;24.00;42.70;;;;;;4991229;28;21337;-65
2023/07/02 06:48:52;;;;;;;11.67;9.00;;;24.00;42.70;;;;;;4991382;28;20223;-65
2023/07/02 06:51:18;;;;;;;9.50;8.20;;;24.00;42.70;;;;;;4993816;28;20330;-65
2023/07/02 06:53:45;;;;;;;11.83;9.07;;;24.00;42.70;;;;;;4992423;28;20303;-65
2023/07/02 06:56:10;;;;;;;13.43;8.90;;;24.00;42.70;;;;;;4989022;28;20476;-65
2023/07/02 06:58:36;;;;;;;11.77;9.67;;;24.00;42.70;;;;;;4978760;28;20472;-65
2023/07/02 07:01:02;;;;;;;11.93;9.20;;;24.00;42.70;;;;;;4990975;28;20640;-65
2023/07/02 07:03:28;;;;;;;11.27;9.23;;;24.00;42.70;;;;;;4989633;28;20224;-65
2023/07/02 07:05:54;;;;;;;11.00;9.00;;;23.90;42.60;;;;;;4987115;28;20702;-65
2023/07/02 07:08:19;;;;;;;12.93;9.20;;;24.00;42.70;;;;;;4987523;28;20238;-65
2023/07/02 07:10:45;;;;;;;12.37;9.60;;;23.90;42.60;;;;;;4987321;28;20322;-63
2023/07/02 07:13:12;;;;;;;17.57;10.13;;;23.90;42.70;;;;;;4989359;28;20248;-64
2023/07/02 07:15:38;;;;;;;11.60;8.40;;;23.90;42.60;;;;;;4988838;28;20450;-64
2023/07/02 07:18:04;;;;;;;11.63;9.03;;;23.90;42.60;;;;;;4989294;28;20502;-64
2023/07/02 07:20:30;;;;;;;11.87;8.80;;;23.90;42.60;;;;;;4987620;28;20281;-65
2023/07/02 07:22:56;;;;;;;9.87;8.37;;;23.90;42.60;;;;;;4984893;28;20460;-64
2023/07/02 07:25:22;;;;;;;11.50;8.83;;;23.90;42.60;;;;;;4988639;28;20460;-63
2023/07/02 07:27:47;;;;;;;13.10;9.90;;;23.90;42.60;;;;;;4989979;28;20790;-66
2023/07/02 07:30:14;;;;;;;9.50;8.60;;;23.90;42.60;;;;;;4990425;28;20346;-64
2023/07/02 07:32:40;;;;;;;10.10;8.70;;;23.90;42.60;;;;;;4989056;28;20223;-66
2023/07/02 07:35:06;;;;;;;12.60;8.93;;;23.90;42.60;;;;;;4989820;28;20527;-66
2023/07/02 07:37:32;;;;;;;10.10;8.23;;;23.90;42.70;;;;;;4997806;28;21043;-65
2023/07/02 07:39:57;;;;;;;10.47;9.10;;;23.90;42.50;;;;;;4989306;28;20544;-66
2023/07/02 07:42:23;;;;;;;11.07;8.70;;;23.90;42.40;;;;;;4986881;28;20354;-66
2023/07/02 07:44:49;;;;;;;12.10;9.03;;;23.90;42.30;;;;;;4984143;28;21382;-67
2023/07/02 07:47:15;;;;;;;43.57;11.27;;;23.90;42.20;;;;;;4972802;28;20244;-67
2023/07/02 07:49:40;;;;;;;11.53;8.40;;;23.90;42.10;;;;;;4976559;28;20274;-67
2023/07/02 07:52:06;;;;;;;18.20;9.63;;;23.90;42.00;;;;;;4984114;28;20228;-66
2023/07/02 07:54:34;;;;;;;13.77;8.90;;;23.90;41.80;;;;;;4993225;28;20234;-66
2023/07/02 07:57:00;;;;;;;28.27;11.63;;;24.00;41.60;;;;;;4988528;28;20472;-66
2023/07/02 07:59:25;;;;;;;14.70;10.13;;;24.00;41.30;;;;;;4988153;28;21263;-66
2023/07/02 08:01:51;;;;;;;15.77;9.80;;;24.00;41.10;;;;;;4989569;28;20814;-67
2023/07/02 08:04:16;;;;;;;18.27;9.90;;;24.00;40.90;;;;;;4966811;28;20231;-65
2023/07/02 08:06:42;;;;;;;9.23;8.30;;;24.00;40.70;;;;;;4989129;28;20226;-64
2023/07/02 08:09:07;;;;;;;12.83;8.87;;;24.00;40.90;;;;;;4987328;28;21180;-65
2023/07/02 08:11:34;;;;;;;14.80;8.67;;;24.00;40.90;;;;;;4988719;28;21102;-65
2023/07/02 08:13:59;;;;;;;9.87;8.80;;;24.00;41.00;;;;;;4987827;28;20231;-65
2023/07/02 08:16:25;;;;;;;14.07;10.10;;;24.00;41.90;;;;;;4987160;28;22090;-65
2023/07/02 08:18:51;;;;;;;11.00;8.47;;;24.00;41.10;;;;;;4987295;28;20250;-65
2023/07/02 08:21:16;;;;;;;11.07;8.30;;;24.00;41.20;;;;;;4985511;28;20229;-65
2023/07/02 08:23:43;;;;;;;12.23;8.57;;;24.00;41.30;;;;;;4981285;28;20334;-65
2023/07/02 08:26:10;;;;;;;11.10;8.90;;;24.00;41.30;;;;;;4986224;28;21705;-65
2023/07/02 08:28:37;;;;;;;11.43;8.23;;;24.00;41.40;;;;;;4979969;28;20467;-65
2023/07/02 08:31:03;;;;;;;11.37;8.53;;;24.00;41.50;;;;;;4981771;28;20479;-64
2023/07/02 08:33:29;;;;;;;12.00;9.00;;;24.00;41.50;;;;;;4988763;28;20452;-67
2023/07/02 08:35:55;;;;;;;10.27;8.50;;;24.00;41.50;;;;;;4986320;28;20226;-66
2023/07/02 08:38:20;;;;;;;9.53;8.20;;;24.00;41.50;;;;;;4977288;28;22511;-66
2023/07/02 08:40:46;;;;;;;11.63;8.50;;;24.00;41.50;;;;;;4993478;28;20223;-67
2023/07/02 08:43:12;;;;;;;11.90;9.37;;;23.90;41.30;;;;;;4990150;28;20242;-67
2023/07/02 08:45:43;;;;;;;11.40;9.40;;;24.00;41.20;;;;;;4986574;28;20271;-66
2023/07/02 08:48:10;;;;;;;10.17;7.80;;;24.00;41.20;;;;;;4985677;28;20662;-65
2023/07/02 08:50:36;;;;;;;10.23;9.20;;;24.00;41.30;;;;;;4995485;28;20476;-66
2023/07/02 08:53:01;;;;;;;10.67;8.10;;;24.00;41.30;;;;;;4991613;28;20952;-66
2023/07/02 08:55:29;;;;;;;10.37;8.77;;;24.00;42.20;;;;;;4995070;28;20227;-66
2023/07/02 08:57:59;;;;;;;12.30;8.73;;;24.00;41.50;;;;;;4996120;28;20258;-65
2023/07/02 09:00:25;;;;;;;9.00;7.67;;;24.00;41.50;;;;;;4993340;28;21367;-66
2023/07/02 09:02:51;;;;;;;8.67;7.80;;;23.90;41.50;;;;;;4987548;28;20469;-68
2023/07/02 09:05:17;;;;;;;10.47;8.67;;;23.90;41.50;;;;;;4988442;28;20476;-66
2023/07/02 09:07:50;;;;;;;9.50;8.10;;;24.00;41.60;;;;;;4990976;28;20238;-66
2023/07/02 09:10:30;;;;;;;10.77;8.37;;;23.90;41.50;;;;;;4992827;28;21022;-66
2023/07/02 09:13:06;;;;;;;9.13;8.23;;;23.90;41.50;;;;;;4991985;28;20571;-66
2023/07/02 09:15:39;;;;;;;9.40;8.33;;;23.90;41.50;;;;;;4991705;28;20480;-66
2023/07/02 09:18:15;;;;;;;12.27;9.20;;;23.90;41.50;;;;;;4989909;28;20808;-65
2023/07/02 09:20:41;;;;;;;10.67;8.83;;;23.90;41.50;;;;;;4997188;28;20468;-65
2023/07/02 09:23:07;;;;;;;11.70;9.17;;;23.90;41.40;;;;;;4997794;28;20459;-65
2023/07/02 09:25:39;;;;;;;9.40;8.27;;;23.90;41.40;;;;;;4996366;28;20222;-66
2023/07/02 09:28:15;;;;;;;10.67;8.40;;;23.90;41.40;;;;;;4993841;28;20228;-65
2023/07/02 09:30:58;;;;;;;9.60;8.70;;;23.90;41.40;;;;;;4997125;28;20476;-67
2023/07/02 09:33:24;;;;;;;9.33;8.43;;;23.90;41.40;;;;;;4994173;28;20457;-65
2023/07/02 09:35:51;;;;;;;13.37;9.40;;;23.90;41.40;;;;;;4994439;28;20858;-64
2023/07/02 09:38:18;;;;;;;10.63;9.23;;;23.90;41.40;;;;;;4990137;28;20589;-64
2023/07/02 09:40:52;;;;;;;10.37;9.30;;;24.00;41.40;;;;;;4992966;28;21090;-64
2023/07/02 09:43:21;;;;;;;12.70;8.83;;;24.00;41.30;;;;;;4994242;28;20473;-64
2023/07/02 09:45:49;;;;;;;13.13;9.07;;;24.00;41.40;;;;;;4993253;28;20453;-65
2023/07/02 09:48:15;;;;;;;12.23;8.80;;;24.00;41.40;;;;;;4991859;28;20468;-64
2023/07/02 09:50:47;;;;;;;11.57;8.10;;;24.00;41.30;;;;;;4991736;28;20481;-65
2023/07/02 09:53:13;;;;;;;12.43;9.60;;;24.00;41.90;;;;;;4991198;28;20512;-64
2023/07/02 09:55:39;;;;;;;11.53;9.30;;;24.00;41.20;;;;;;4994556;28;20464;-65
2023/07/02 09:58:05;;;;;;;11.37;8.93;;;24.00;41.20;;;;;;4991545;28;20242;-65
2023/07/02 10:00:31;;;;;;;11.60;9.03;;;24.00;41.30;;;;;;4992535;28;20465;-64
2023/07/02 10:02:57;;;;;;;11.30;9.67;;;24.00;41.30;;;;;;4993626;28;20504;-65
2023/07/02 10:05:27;;;;;;;12.40;9.50;;;24.00;41.30;;;;;;4994017;28;20491;-64
2023/07/02 10:07:53;;;;;;;10.70;9.53;;;24.00;41.30;;;;;;4990626;28;20382;-64
2023/07/02 10:10:27;;;;;;;12.50;8.10;;;24.00;41.30;;;;;;4994666;28;20480;-64
2023/07/02 10:12:53;;;;;;;11.73;9.20;;;23.90;41.20;;;;;;4990484;28;20464;-65
2023/07/02 10:15:29;;;;;;;11.50;9.80;;;23.90;41.20;;;;;;4995421;28;21157;-64
2023/07/02 10:17:56;;;;;;;10.00;9.00;;;23.90;41.20;;;;;;4994527;28;20219;-64
2023/07/02 10:20:33;;;;;;;12.70;8.80;;;23.90;41.20;;;;;;4990410;28;20460;-65
2023/07/02 10:22:59;;;;;;;9.50;8.33;;;23.90;41.10;;;;;;4990149;28;20465;-65
2023/07/02 10:25:29;;;;;;;8.80;7.90;;;23.90;41.00;;;;;;4993191;28;20462;-64
2023/07/02 10:27:55;;;;;;;7.80;7.00;;;23.90;41.00;;;;;;4993416;28;20230;-64
2023/07/02 10:30:34;;;;;;;7.93;7.23;;;23.90;41.10;;;;;;4994367;28;20477;-64
2023/07/02 10:33:15;;;;;;;8.17;7.20;;;23.90;41.10;;;;;;4989591;28;20496;-65
2023/07/02 10:35:44;;;;;;;8.73;7.80;;;23.90;41.00;;;;;;4979917;28;20479;-64
2023/07/02 10:38:24;;;;;;;8.10;6.90;;;23.90;41.10;;;;;;4984109;28;21285;-65
2023/07/02 10:41:02;;;;;;;8.50;7.10;;;23.90;41.10;;;;;;4987588;28;20471;-65
2023/07/02 10:43:30;;;;;;;9.87;7.90;;;23.90;41.10;;;;;;4984407;28;20498;-65
2023/07/02 10:45:55;;;;;;;8.70;7.80;;;23.90;41.10;;;;;;4992159;28;20511;-65
2023/07/02 10:48:21;;;;;;;7.73;7.00;;;23.90;41.00;;;;;;4992738;28;20915;-65
2023/07/02 10:50:47;;;;;;;8.80;7.50;;;23.90;41.00;;;;;;4993295;28;20640;-65
2023/07/02 10:53:16;;;;;;;7.60;7.00;;;23.90;41.00;;;;;;4994916;28;20691;-65
2023/07/02 10:55:42;;;;;;;8.47;7.67;;;23.90;41.00;;;;;;4988148;28;20329;-65
2023/07/02 10:58:09;;;;;;;9.13;7.47;;;23.90;41.00;;;;;;4992799;28;20559;-65
2023/07/02 11:00:46;;;;;;;8.40;7.60;;;23.90;41.00;;;;;;4989033;28;20227;-66
2023/07/02 11:03:19;;;;;;;10.70;6.83;;;23.90;41.00;;;;;;4989198;28;21380;-65
2023/07/02 11:05:45;;;;;;;12.07;7.57;;;23.90;40.60;;;;;;4991967;28;20818;-65
2023/07/02 11:08:11;;;;;;;8.67;7.07;;;23.90;40.60;;;;;;4987138;28;23302;-66
2023/07/02 11:10:36;;;;;;;7.60;6.87;;;23.90;40.50;;;;;;4994202;28;20983;-65
2023/07/02 11:13:19;;;;;;;8.83;7.17;;;23.90;40.40;;;;;;4991220;28;20232;-66
2023/07/02 11:15:48;;;;;;;9.30;6.97;;;23.90;40.40;;;;;;4976531;28;20583;-65
2023/07/02 11:18:15;;;;;;;7.80;6.70;;;23.90;40.30;;;;;;4991631;28;20477;-65
2023/07/02 11:20:42;;;;;;;7.77;7.10;;;23.90;40.20;;;;;;4990948;28;20472;-65
2023/07/02 11:23:25;;;;;;;6.83;6.23;;;23.90;40.20;;;;;;4991697;28;20960;-65
2023/07/02 11:26:00;;;;;;;7.80;6.73;;;23.90;40.20;;;;;;4994674;28;20455;-66
2023/07/02 11:28:27;;;;;;;7.73;7.00;;;24.00;40.10;;;;;;4991647;28;20548;-66
2023/07/02 11:30:52;;;;;;;6.97;6.37;;;23.90;40.10;;;;;;4995674;28;20475;-65
2023/07/02 11:33:18;;;;;;;8.23;6.97;;;23.90;40.10;;;;;;4994191;28;20449;-65
2023/07/02 11:35:43;;;;;;;7.37;6.60;;;23.90;40.10;;;;;;4991328;28;20215;-65
2023/07/02 11:38:12;;;;;;;7.13;6.50;;;23.90;40.10;;;;;;4988504;28;20215;-65
2023/07/02 11:40:38;;;;;;;7.90;6.40;;;23.90;40.10;;;;;;4984635;28;20362;-65
2023/07/02 11:43:05;;;;;;;6.67;5.90;;;23.90;40.10;;;;;;4991048;28;20852;-65
2023/07/02 11:45:31;;;;;;;10.37;6.57;;;23.90;40.10;;;;;;4989047;28;20226;-65
2023/07/02 11:47:57;;;;;;;7.37;6.23;;;23.90;40.10;;;;;;4989613;28;20899;-68
2023/07/02 11:50:22;;;;;;;6.23;5.83;;;23.90;40.00;;;;;;4989092;28;22105;-65
2023/07/02 11:52:48;;;;;;;7.27;6.60;;;23.90;40.10;;;;;;4991914;28;20229;-67
2023/07/02 11:55:13;;;;;;;6.00;5.50;;;23.90;40.00;;;;;;4986963;28;20306;-67
2023/07/02 11:57:39;;;;;;;7.47;6.33;;;23.90;40.00;;;;;;4992959;28;20228;-68
2023/07/02 12:00:05;;;;;;;8.73;6.13;;;23.90;39.90;;;;;;4992096;28;20230;-65
2023/07/02 12:02:30;;;;;;;6.30;5.50;;;23.90;40.00;;;;;;4994035;28;20236;-65
2023/07/02 12:04:56;;;;;;;6.27;5.70;;;23.90;39.80;;;;;;4991118;28;20997;-65
2023/07/02 12:07:21;;;;;;;5.97;5.47;;;23.90;39.80;;;;;;4990815;28;20858;-67
2023/07/02 12:09:47;;;;;;;7.00;6.50;;;23.90;39.80;;;;;;4991015;28;20715;-67
2023/07/02 12:12:13;;;;;;;6.40;5.70;;;23.90;39.70;;;;;;4986818;28;21243;-67
2023/07/02 12:14:41;;;;;;;6.03;5.60;;;23.90;39.70;;;;;;4990662;28;20250;-65
2023/07/02 12:17:07;;;;;;;6.73;6.13;;;23.90;39.70;;;;;;4988056;28;20332;-67
2023/07/02 12:19:32;;;;;;;7.43;6.40;;;23.90;39.70;;;;;;4990810;28;20683;-66
2023/07/02 12:21:58;;;;;;;6.57;5.50;;;23.90;39.60;;;;;;4992839;28;20241;-66
2023/07/02 12:24:23;;;;;;;8.50;6.40;;;23.90;39.60;;;;;;4996469;28;20224;-66
2023/07/02 12:26:49;;;;;;;5.70;5.30;;;23.90;39.50;;;;;;4990245;28;20235;-66
2023/07/02 12:29:14;;;;;;;5.97;5.47;;;23.90;39.50;;;;;;4990506;28;20236;-66
2023/07/02 12:31:40;;;;;;;7.00;6.03;;;23.90;39.40;;;;;;4994535;28;20285;-66
2023/07/02 12:34:05;;;;;;;5.80;5.30;;;23.90;39.30;;;;;;4993668;28;20291;-66
2023/07/02 12:36:31;;;;;;;6.33;5.43;;;23.90;39.20;;;;;;4993075;28;20306;-66
2023/07/02 12:38:56;;;;;;;8.37;6.40;;;23.90;39.20;;;;;;4991985;28;20230;-66
2023/07/02 12:41:22;;;;;;;6.40;5.13;;;23.90;39.10;;;;;;4992196;28;20252;-66
2023/07/02 12:43:47;;;;;;;6.30;5.80;;;23.90;39.10;;;;;;4995372;28;20224;-66